Time;durP1;ratioP1;P1;durP2;ratioP2;P2;SDS_P1;SDS_P2;PMS_P1;PMS_P2;Temp;Humidity;BMP_temperature;BMP_pressure;BME280_temperature;BME280_humidity;BME280_pressure;Samples;Min_cycle;Max_cycle;Signal;HPM_P1;HPM_P2
2021/12/16 00:03:36;;;;;;;31.35;16.70;;;;;;;;;;1872951;75;21142;-43
2021/12/16 00:08:21;;;;;;;32.48;17.17;;;;;;;;;;1872971;75;21498;-43
2021/12/16 00:10:54;;;;;;;34.40;16.12;;;;;;;;;;1871076;76;21056;-44
2021/12/16 00:30:11;;;;;;;37.67;17.57;;;;;;;;;;1872883;77;21052;-43
2021/12/16 00:35:13;;;;;;;33.38;16.77;;;;;;;;;;1872899;77;21096;-44
2021/12/16 00:37:41;;;;;;;37.55;18.52;;;;;;;;;;1873007;76;21107;-44
2021/12/16 00:40:11;;;;;;;38.02;17.82;;;;;;;;;;1872991;76;21037;-44
2021/12/16 00:48:04;;;;;;;38.60;19.15;;;;;;;;;;1872748;76;21069;-44
2021/12/16 00:55:54;;;;;;;37.80;17.05;;;;;;;;;;1872868;76;21048;-43
2021/12/16 00:58:25;;;;;;;33.80;15.28;;;;;;;;;;1872842;76;21455;-44
2021/12/16 01:01:01;;;;;;;33.63;16.82;;;;;;;;;;1872942;76;21491;-44
2021/12/16 01:03:35;;;;;;;25.92;15.32;;;;;;;;;;1872298;75;21091;-44
2021/12/16 01:09:09;;;;;;;30.85;15.25;;;;;;;;;;1872850;75;21112;-43
2021/12/16 01:34:01;;;;;;;36.80;17.15;;;;;;;;;;1873059;76;21045;-44
2021/12/16 01:37:20;;;;;;;36.73;17.77;;;;;;;;;;1872167;76;21475;-44
2021/12/16 01:42:10;;;;;;;38.48;16.97;;;;;;;;;;1873101;76;21005;-44
2021/12/16 01:47:01;;;;;;;26.55;15.10;;;;;;;;;;1880952;75;21077;-44
2021/12/16 01:49:28;;;;;;;27.90;14.30;;;;;;;;;;1878137;76;20997;-45
2021/12/16 01:56:55;;;;;;;39.35;15.98;;;;;;;;;;1882625;75;21118;-44
2021/12/16 01:59:19;;;;;;;31.45;15.78;;;;;;;;;;1879986;75;21099;-45
2021/12/16 02:01:45;;;;;;;33.88;14.65;;;;;;;;;;1882144;76;21486;-44
2021/12/16 02:04:26;;;;;;;36.90;15.95;;;;;;;;;;1882463;75;21016;-44
2021/12/16 02:07:08;;;;;;;37.85;16.85;;;;;;;;;;1881331;75;21126;-44
2021/12/16 02:09:41;;;;;;;37.83;17.15;;;;;;;;;;1881307;75;21114;-44
2021/12/16 02:12:23;;;;;;;41.53;17.98;;;;;;;;;;1882080;76;21561;-43
2021/12/16 02:29:04;;;;;;;40.10;16.87;;;;;;;;;;1882494;75;21126;-43
2021/12/16 02:31:48;;;;;;;40.28;16.75;;;;;;;;;;1879305;76;21056;-44
2021/12/16 02:36:47;;;;;;;32.98;16.62;;;;;;;;;;1882500;76;21052;-43
2021/12/16 02:39:19;;;;;;;39.63;17.77;;;;;;;;;;1882459;76;21033;-43
2021/12/16 02:41:49;;;;;;;36.15;17.32;;;;;;;;;;1882593;75;21036;-43
2021/12/16 02:44:26;;;;;;;41.75;17.67;;;;;;;;;;1882290;75;21064;-44
2021/12/16 02:49:39;;;;;;;33.83;16.00;;;;;;;;;;1882313;75;21044;-43
2021/12/16 02:52:08;;;;;;;33.73;16.32;;;;;;;;;;1882312;75;21096;-43
2021/12/16 02:54:37;;;;;;;30.60;16.45;;;;;;;;;;1882358;76;21169;-43
2021/12/16 02:57:06;;;;;;;33.95;16.05;;;;;;;;;;1882302;75;21098;-43
2021/12/16 02:59:35;;;;;;;38.53;17.27;;;;;;;;;;1882542;75;21057;-44
2021/12/16 03:02:08;;;;;;;37.90;15.60;;;;;;;;;;1882277;76;21028;-43
2021/12/16 03:04:38;;;;;;;27.02;14.73;;;;;;;;;;1859911;75;21044;-43
2021/12/16 03:07:10;;;;;;;29.35;13.13;;;;;;;;;;1882413;75;21145;-43
2021/12/16 03:12:51;;;;;;;34.85;16.05;;;;;;;;;;1882359;75;21052;-43
2021/12/16 03:15:27;;;;;;;38.20;17.02;;;;;;;;;;1880839;75;21024;-44
2021/12/16 03:18:07;;;;;;;39.27;15.90;;;;;;;;;;1880541;75;21114;-43
2021/12/16 03:20:51;;;;;;;30.95;15.40;;;;;;;;;;1881127;76;21063;-43
2021/12/16 03:23:20;;;;;;;38.67;17.35;;;;;;;;;;1871624;76;21463;-43
2021/12/16 03:31:30;;;;;;;40.48;18.00;;;;;;;;;;1714376;81;21118;-43
2021/12/16 03:36:31;;;;;;;39.80;18.60;;;;;;;;;;1882453;75;21118;-43
2021/12/16 03:38:59;;;;;;;43.15;18.20;;;;;;;;;;1882362;75;21577;-43
2021/12/16 03:41:30;;;;;;;42.85;17.80;;;;;;;;;;1882002;76;21080;-44
2021/12/16 03:44:01;;;;;;;37.38;16.55;;;;;;;;;;1882234;75;21032;-43
2021/12/16 03:46:34;;;;;;;37.78;17.17;;;;;;;;;;1882400;76;21000;-43
2021/12/16 03:49:07;;;;;;;31.55;16.65;;;;;;;;;;1882390;76;21082;-44
2021/12/16 03:51:43;;;;;;;38.83;17.90;;;;;;;;;;1882391;76;21129;-44
2021/12/16 03:54:19;;;;;;;35.00;16.27;;;;;;;;;;1882359;75;21000;-43
2021/12/16 03:56:49;;;;;;;43.80;17.80;;;;;;;;;;1882261;75;21076;-43
2021/12/16 03:59:20;;;;;;;35.80;14.60;;;;;;;;;;1882307;76;21049;-43
2021/12/16 04:01:55;;;;;;;40.08;18.95;;;;;;;;;;1882174;75;21085;-43
2021/12/16 04:04:25;;;;;;;39.27;18.35;;;;;;;;;;1881581;75;21097;-43
2021/12/16 04:06:55;;;;;;;38.00;14.87;;;;;;;;;;1882267;75;21095;-43
2021/12/16 04:09:25;;;;;;;42.60;17.07;;;;;;;;;;1882321;76;21048;-43
2021/12/16 04:12:03;;;;;;;41.18;20.23;;;;;;;;;;1878768;75;21119;-43
2021/12/16 04:14:26;;;;;;;31.77;15.95;;;;;;;;;;1881527;76;21536;-43
2021/12/16 04:16:56;;;;;;;45.98;20.15;;;;;;;;;;1882264;76;21020;-43
2021/12/16 04:19:27;;;;;;;36.50;16.27;;;;;;;;;;1880321;76;21077;-43
2021/12/16 04:21:57;;;;;;;44.20;19.75;;;;;;;;;;1882264;75;21024;-43
2021/12/16 04:24:27;;;;;;;39.42;18.07;;;;;;;;;;1882356;76;21001;-43
2021/12/16 04:26:56;;;;;;;39.20;16.95;;;;;;;;;;1882401;75;21028;-43
2021/12/16 04:29:25;;;;;;;43.48;18.77;;;;;;;;;;1882235;76;21115;-43
2021/12/16 04:31:55;;;;;;;41.58;18.82;;;;;;;;;;1882224;75;21000;-43
2021/12/16 04:34:25;;;;;;;43.10;17.55;;;;;;;;;;1882010;75;21138;-43
2021/12/16 04:36:55;;;;;;;37.30;15.88;;;;;;;;;;1882268;76;21044;-43
2021/12/16 04:39:25;;;;;;;42.98;17.52;;;;;;;;;;1882333;76;21012;-43
2021/12/16 04:41:54;;;;;;;39.80;16.32;;;;;;;;;;1882353;76;21029;-44
2021/12/16 04:44:25;;;;;;;40.92;17.70;;;;;;;;;;1882440;76;21111;-44
2021/12/16 04:46:55;;;;;;;37.25;16.80;;;;;;;;;;1882572;75;21520;-43
2021/12/16 04:49:24;;;;;;;38.45;17.48;;;;;;;;;;1882244;76;21036;-43
2021/12/16 04:51:54;;;;;;;41.50;18.32;;;;;;;;;;1882325;76;21001;-44
2021/12/16 04:54:24;;;;;;;42.00;19.45;;;;;;;;;;1882186;75;21086;-44
2021/12/16 04:56:53;;;;;;;52.15;18.80;;;;;;;;;;1882345;75;21139;-44
2021/12/16 04:59:23;;;;;;;44.85;21.33;;;;;;;;;;1882376;75;21052;-44
2021/12/16 05:01:53;;;;;;;45.65;18.42;;;;;;;;;;1882323;76;21032;-43
2021/12/16 05:04:23;;;;;;;111.80;48.30;;;;;;;;;;1880818;75;21084;-44
2021/12/16 05:06:52;;;;;;;33.35;16.50;;;;;;;;;;1882240;76;21483;-44
2021/12/16 05:10:01;;;;;;;46.18;17.32;;;;;;;;;;1882316;76;21016;-44
2021/12/16 05:11:55;;;;;;;28.12;13.25;;;;;;;;;;1878379;75;21534;-44
2021/12/16 05:14:24;;;;;;;38.13;15.00;;;;;;;;;;1882204;75;21041;-43
2021/12/16 05:16:52;;;;;;;36.15;14.40;;;;;;;;;;1882261;75;21040;-44
2021/12/16 05:19:23;;;;;;;35.23;17.37;;;;;;;;;;1882267;76;21099;-44
2021/12/16 05:24:13;;;;;;;37.25;15.72;;;;;;;;;;1882163;75;20997;-44
2021/12/16 05:24:27;;;;;;;42.23;18.67;;;;;;;;;;1879453;75;21106;-45
2021/12/16 05:27:02;;;;;;;55.70;19.60;;;;;;;;;;1881809;75;21519;-45
2021/12/16 05:29:30;;;;;;;34.90;16.07;;;;;;;;;;1882443;76;21102;-44
2021/12/16 05:32:01;;;;;;;36.03;16.12;;;;;;;;;;1882064;76;21146;-43
2021/12/16 05:34:30;;;;;;;35.25;15.00;;;;;;;;;;1882262;75;21102;-44
2021/12/16 05:36:59;;;;;;;32.88;16.12;;;;;;;;;;1882272;76;21102;-44
2021/12/16 05:39:28;;;;;;;41.37;17.17;;;;;;;;;;1882297;75;21537;-44
2021/12/16 05:42:15;;;;;;;45.50;16.85;;;;;;;;;;1882043;76;21554;-43
2021/12/16 05:44:44;;;;;;;32.88;15.63;;;;;;;;;;1882310;76;21048;-44
2021/12/16 05:47:13;;;;;;;29.85;14.25;;;;;;;;;;1873031;75;21072;-44
2021/12/16 05:49:42;;;;;;;39.03;17.48;;;;;;;;;;1872708;77;21103;-44
2021/12/16 05:52:11;;;;;;;38.17;18.17;;;;;;;;;;1872665;76;21005;-44
2021/12/16 05:54:40;;;;;;;44.13;20.45;;;;;;;;;;1872711;77;21021;-44
2021/12/16 05:57:13;;;;;;;55.30;26.97;;;;;;;;;;1872262;76;21127;-44
2021/12/16 05:59:44;;;;;;;46.53;23.45;;;;;;;;;;1872293;75;21073;-44
2021/12/16 06:02:12;;;;;;;47.78;23.35;;;;;;;;;;1872708;76;21107;-44
2021/12/16 06:04:43;;;;;;;34.40;17.60;;;;;;;;;;1872752;75;21017;-44
2021/12/16 06:07:13;;;;;;;22.22;12.45;;;;;;;;;;1872452;75;21115;-44
2021/12/16 06:09:44;;;;;;;22.50;11.73;;;;;;;;;;1872375;76;21142;-44
2021/12/16 06:12:14;;;;;;;37.13;18.98;;;;;;;;;;1872702;75;21526;-44
2021/12/16 06:28:36;;;;;;;59.83;30.48;;;;;;;;;;1872833;75;21088;-44
2021/12/16 06:31:03;;;;;;;22.90;12.93;;;;;;;;;;1872891;76;21487;-44
2021/12/16 06:33:32;;;;;;;23.83;11.43;;;;;;;;;;1872894;75;21107;-45
2021/12/16 06:36:01;;;;;;;21.75;12.03;;;;;;;;;;1872794;76;21036;-45
2021/12/16 06:38:30;;;;;;;23.98;12.73;;;;;;;;;;1872847;77;21037;-45
2021/12/16 06:41:17;;;;;;;27.65;13.10;;;;;;;;;;1872351;76;21708;-44
2021/12/16 06:43:50;;;;;;;21.12;12.13;;;;;;;;;;1869669;76;21029;-44
2021/12/16 06:46:21;;;;;;;28.60;14.78;;;;;;;;;;1872478;75;21619;-44
2021/12/16 06:48:56;;;;;;;30.62;14.93;;;;;;;;;;1872081;77;21601;-44
2021/12/16 06:51:27;;;;;;;29.42;16.32;;;;;;;;;;1871147;76;21523;-45
2021/12/16 06:54:01;;;;;;;35.38;16.07;;;;;;;;;;1870947;76;21421;-44
2021/12/16 06:56:34;;;;;;;38.53;14.58;;;;;;;;;;1871046;76;21130;-44
2021/12/16 06:59:22;;;;;;;25.62;13.32;;;;;;;;;;1871088;76;21098;-44
2021/12/16 07:01:41;;;;;;;29.18;14.13;;;;;;;;;;1870762;76;21208;-44
2021/12/16 07:04:10;;;;;;;26.12;13.65;;;;;;;;;;1897492;75;21567;-44
2021/12/16 07:06:39;;;;;;;33.67;15.53;;;;;;;;;;1902684;75;21015;-44
2021/12/16 07:09:13;;;;;;;28.67;14.00;;;;;;;;;;1902744;75;21066;-43
2021/12/16 07:11:41;;;;;;;33.45;15.50;;;;;;;;;;1902118;75;21090;-43
2021/12/16 07:14:14;;;;;;;35.23;17.05;;;;;;;;;;1902637;75;21107;-44
2021/12/16 07:16:41;;;;;;;32.60;14.33;;;;;;;;;;1902067;75;21051;-43
2021/12/16 07:19:09;;;;;;;35.03;16.82;;;;;;;;;;1902537;75;21144;-43
2021/12/16 07:21:39;;;;;;;34.92;16.02;;;;;;;;;;1902596;75;21160;-44
2021/12/16 07:24:15;;;;;;;35.55;17.30;;;;;;;;;;1902665;75;21030;-44
2021/12/16 07:26:44;;;;;;;32.90;15.43;;;;;;;;;;1902815;75;21059;-44
2021/12/16 07:29:13;;;;;;;37.80;17.15;;;;;;;;;;1902796;75;21027;-44
2021/12/16 07:31:41;;;;;;;38.45;16.62;;;;;;;;;;1902476;75;21109;-45
2021/12/16 07:34:11;;;;;;;31.35;14.80;;;;;;;;;;1902633;75;21043;-43
2021/12/16 07:36:41;;;;;;;38.35;18.23;;;;;;;;;;1902774;75;21145;-43
2021/12/16 07:39:11;;;;;;;36.50;18.30;;;;;;;;;;1902438;75;21434;-43
2021/12/16 07:41:41;;;;;;;30.72;15.53;;;;;;;;;;1902643;75;21457;-44
2021/12/16 07:44:11;;;;;;;23.20;12.68;;;;;;;;;;1902441;75;21097;-44
2021/12/16 07:46:48;;;;;;;25.60;13.38;;;;;;;;;;1902434;75;21063;-44
2021/12/16 07:49:18;;;;;;;28.02;14.10;;;;;;;;;;1902716;75;21051;-44
2021/12/16 07:51:48;;;;;;;28.30;13.43;;;;;;;;;;1902677;75;21031;-43
2021/12/16 07:54:17;;;;;;;28.02;12.53;;;;;;;;;;1902367;75;21106;-44
2021/12/16 07:56:47;;;;;;;36.88;17.45;;;;;;;;;;1902667;75;21606;-44
2021/12/16 07:59:15;;;;;;;31.95;15.75;;;;;;;;;;1902766;75;21004;-44
2021/12/16 08:01:45;;;;;;;25.30;12.70;;;;;;;;;;1902345;75;21027;-43
2021/12/16 08:04:20;;;;;;;25.35;12.70;;;;;;;;;;1902513;75;21063;-45
2021/12/16 08:06:51;;;;;;;29.05;15.10;;;;;;;;;;1902613;75;21031;-45
2021/12/16 08:09:20;;;;;;;26.77;11.93;;;;;;;;;;1902522;75;21023;-45
2021/12/16 08:11:50;;;;;;;30.30;14.65;;;;;;;;;;1901599;75;21130;-45
2021/12/16 08:14:19;;;;;;;30.97;15.58;;;;;;;;;;1901456;75;21102;-45
2021/12/16 08:16:48;;;;;;;32.10;15.20;;;;;;;;;;1901670;75;21090;-45
2021/12/16 08:19:17;;;;;;;25.68;12.23;;;;;;;;;;1902512;75;21040;-45
2021/12/16 08:21:46;;;;;;;27.40;14.93;;;;;;;;;;1902495;75;21057;-45
2021/12/16 08:24:16;;;;;;;30.40;15.00;;;;;;;;;;1902560;75;21082;-44
2021/12/16 08:26:46;;;;;;;22.17;12.80;;;;;;;;;;1902853;75;21093;-45
2021/12/16 08:29:15;;;;;;;35.03;15.60;;;;;;;;;;1902914;75;21145;-43
2021/12/16 08:31:44;;;;;;;38.35;19.45;;;;;;;;;;1902472;75;21133;-44
2021/12/16 08:34:13;;;;;;;52.40;22.90;;;;;;;;;;1902588;75;21089;-44
2021/12/16 08:36:42;;;;;;;46.00;17.80;;;;;;;;;;1902577;75;21097;-44
2021/12/16 08:39:11;;;;;;;42.55;18.87;;;;;;;;;;1902420;75;21035;-44
2021/12/16 08:41:41;;;;;;;40.67;18.23;;;;;;;;;;1902621;75;21063;-44
2021/12/16 08:44:09;;;;;;;43.45;18.00;;;;;;;;;;1902731;75;21051;-44
2021/12/16 08:46:40;;;;;;;40.55;17.85;;;;;;;;;;1902546;75;21132;-43
2021/12/16 08:49:09;;;;;;;31.23;14.28;;;;;;;;;;1902693;75;21069;-43
2021/12/16 08:51:39;;;;;;;35.50;15.83;;;;;;;;;;1902785;75;21039;-45
2021/12/16 08:54:08;;;;;;;35.60;16.55;;;;;;;;;;1902520;75;21655;-44
2021/12/16 08:56:37;;;;;;;41.83;18.37;;;;;;;;;;1902726;75;21184;-44
2021/12/16 08:59:07;;;;;;;42.27;17.27;;;;;;;;;;1902930;75;21043;-45
2021/12/16 09:01:37;;;;;;;36.55;17.37;;;;;;;;;;1902415;75;21086;-43
2021/12/16 09:04:06;;;;;;;38.30;16.87;;;;;;;;;;1901654;75;21134;-43
2021/12/16 09:06:35;;;;;;;41.20;18.12;;;;;;;;;;1902877;75;21082;-43
2021/12/16 09:09:05;;;;;;;32.93;15.38;;;;;;;;;;1902545;75;21043;-44
2021/12/16 09:11:39;;;;;;;29.57;14.10;;;;;;;;;;1902732;75;22259;-43
2021/12/16 09:14:04;;;;;;;35.15;15.58;;;;;;;;;;1902198;75;21109;-44
2021/12/16 09:16:33;;;;;;;40.50;17.07;;;;;;;;;;1902454;75;21172;-43
2021/12/16 09:19:03;;;;;;;39.55;17.85;;;;;;;;;;1902688;75;21031;-44
2021/12/16 09:21:33;;;;;;;47.90;19.90;;;;;;;;;;1902708;75;21082;-44
2021/12/16 09:24:02;;;;;;;38.28;15.15;;;;;;;;;;1902391;75;21173;-43
2021/12/16 09:26:31;;;;;;;32.90;16.15;;;;;;;;;;1902637;75;21148;-45
2021/12/16 09:28:59;;;;;;;35.25;17.65;;;;;;;;;;1902773;75;21039;-44
2021/12/16 09:31:28;;;;;;;37.25;16.80;;;;;;;;;;1902386;75;21078;-43
2021/12/16 09:34:04;;;;;;;42.03;18.32;;;;;;;;;;1902692;75;21101;-44
2021/12/16 09:36:28;;;;;;;37.30;17.50;;;;;;;;;;1901876;75;21706;-43
2021/12/16 09:38:57;;;;;;;37.35;17.67;;;;;;;;;;1902356;75;21039;-43
2021/12/16 09:41:27;;;;;;;36.95;17.35;;;;;;;;;;1902642;75;21099;-43
2021/12/16 09:43:56;;;;;;;40.63;16.97;;;;;;;;;;1902812;75;21201;-44
2021/12/16 09:46:26;;;;;;;33.25;17.77;;;;;;;;;;1902416;75;21091;-43
2021/12/16 09:48:56;;;;;;;41.65;18.10;;;;;;;;;;1898318;75;21094;-43
2021/12/16 09:51:26;;;;;;;32.30;17.00;;;;;;;;;;1897644;75;21082;-45
2021/12/16 09:53:56;;;;;;;54.90;21.07;;;;;;;;;;1897442;75;21156;-44
2021/12/16 09:56:27;;;;;;;43.50;20.10;;;;;;;;;;1897862;75;21115;-45
2021/12/16 09:58:57;;;;;;;40.00;17.62;;;;;;;;;;1897814;75;21035;-45
2021/12/16 10:01:26;;;;;;;41.00;18.12;;;;;;;;;;1897500;75;21105;-45
2021/12/16 10:03:57;;;;;;;43.85;19.20;;;;;;;;;;1897843;75;21086;-44
2021/12/16 10:06:25;;;;;;;39.23;18.42;;;;;;;;;;1897649;75;20996;-45
2021/12/16 10:08:54;;;;;;;43.13;19.98;;;;;;;;;;1897800;75;21000;-44
2021/12/16 10:11:23;;;;;;;36.20;20.10;;;;;;;;;;1897830;75;21157;-44
2021/12/16 10:19:16;;;;;;;35.90;18.10;;;;;;;;;;1897808;75;21051;-45
2021/12/16 10:21:45;;;;;;;36.38;19.00;;;;;;;;;;1897443;75;21083;-45
2021/12/16 10:24:27;;;;;;;41.00;19.62;;;;;;;;;;1897883;75;21031;-44
2021/12/16 10:27:07;;;;;;;41.23;18.70;;;;;;;;;;1894485;75;21178;-44
2021/12/16 10:29:37;;;;;;;40.88;21.57;;;;;;;;;;1899342;74;21017;-42
2021/12/16 10:32:08;;;;;;;44.18;21.77;;;;;;;;;;1897599;75;21257;-43
2021/12/16 10:34:37;;;;;;;39.23;17.77;;;;;;;;;;1894862;74;21017;-44
2021/12/16 10:37:06;;;;;;;34.20;15.85;;;;;;;;;;1894508;75;21433;-45
2021/12/16 10:39:35;;;;;;;33.85;16.87;;;;;;;;;;1885892;74;21084;-44
2021/12/16 10:42:06;;;;;;;48.28;20.37;;;;;;;;;;1877231;75;21125;-45
2021/12/16 10:44:36;;;;;;;38.38;18.92;;;;;;;;;;1871427;75;21112;-45
2021/12/16 10:47:10;;;;;;;43.10;21.48;;;;;;;;;;1867465;77;21472;-44
2021/12/16 10:49:40;;;;;;;39.50;19.55;;;;;;;;;;1883094;75;21113;-45
2021/12/16 10:52:10;;;;;;;32.55;17.15;;;;;;;;;;1900630;75;21085;-44
2021/12/16 10:54:41;;;;;;;42.83;18.90;;;;;;;;;;1904654;75;21090;-44
2021/12/16 10:57:10;;;;;;;33.25;17.87;;;;;;;;;;1891545;75;21086;-43
2021/12/16 10:59:56;;;;;;;34.23;17.77;;;;;;;;;;1885959;74;21177;-43
2021/12/16 11:02:26;;;;;;;34.15;16.87;;;;;;;;;;1891366;74;21098;-45
2021/12/16 11:05:00;;;;;;;33.45;16.55;;;;;;;;;;1885475;75;20995;-43
2021/12/16 11:07:31;;;;;;;30.80;16.33;;;;;;;;;;1897289;75;21144;-43
2021/12/16 11:10:19;;;;;;;28.62;13.18;;;;;;;;;;1894595;75;21259;-44
2021/12/16 11:12:49;;;;;;;28.05;13.13;;;;;;;;;;1904409;75;21513;-44
2021/12/16 11:15:31;;;;;;;23.50;13.45;;;;;;;;;;1903889;75;21117;-44
2021/12/16 11:18:02;;;;;;;19.40;12.15;;;;;;;;;;1904542;75;21136;-44
2021/12/16 11:20:35;;;;;;;22.87;11.90;;;;;;;;;;1904139;75;21205;-47
2021/12/16 11:23:08;;;;;;;22.87;12.70;;;;;;;;;;1904466;75;21097;-44
2021/12/16 11:25:41;;;;;;;20.75;11.90;;;;;;;;;;1904684;74;21109;-43
2021/12/16 11:28:20;;;;;;;21.35;13.78;;;;;;;;;;1905032;75;21559;-43
2021/12/16 11:31:05;;;;;;;29.37;15.38;;;;;;;;;;1905301;74;21031;-43
2021/12/16 11:33:33;;;;;;;;;;;;;;;;;;1908168;74;21047;-45
2021/12/16 11:36:03;;;;;;;31.97;17.00;;;;;;;;;;1905331;74;20417;-44
2021/12/16 11:38:42;;;;;;;21.73;9.45;;;;;;;;;;1905327;74;21023;-44
2021/12/16 11:41:12;;;;;;;29.98;13.83;;;;;;;;;;1905322;75;21020;-44
2021/12/16 11:43:45;;;;;;;24.23;13.38;;;;;;;;;;1904535;74;21093;-44
2021/12/16 11:46:15;;;;;;;26.05;14.68;;;;;;;;;;1905470;74;21524;-44
2021/12/16 11:48:45;;;;;;;24.52;12.10;;;;;;;;;;1905340;75;21101;-44
2021/12/16 11:51:15;;;;;;;26.02;14.47;;;;;;;;;;1905359;75;21023;-43
2021/12/16 11:53:45;;;;;;;26.90;14.53;;;;;;;;;;1905326;75;21114;-45
2021/12/16 11:56:14;;;;;;;31.35;15.93;;;;;;;;;;1905274;74;20991;-44
2021/12/16 11:58:44;;;;;;;27.95;13.70;;;;;;;;;;1905378;74;21039;-44
2021/12/16 12:01:14;;;;;;;26.37;14.60;;;;;;;;;;1905090;75;21043;-44
2021/12/16 12:03:44;;;;;;;24.60;13.75;;;;;;;;;;1905206;74;21086;-44
2021/12/16 12:06:20;;;;;;;20.65;12.47;;;;;;;;;;1903812;75;21126;-44
2021/12/16 12:08:49;;;;;;;34.95;18.30;;;;;;;;;;1904573;74;21078;-43
2021/12/16 12:11:22;;;;;;;27.87;15.65;;;;;;;;;;1905236;75;21097;-43
2021/12/16 12:13:54;;;;;;;46.90;17.98;;;;;;;;;;1905146;75;21039;-43
2021/12/16 12:16:24;;;;;;;27.37;14.23;;;;;;;;;;1903661;74;21067;-44
2021/12/16 12:18:54;;;;;;;27.27;15.68;;;;;;;;;;1902816;74;21539;-43
2021/12/16 12:21:24;;;;;;;27.42;15.30;;;;;;;;;;1904236;75;20979;-43
2021/12/16 12:23:57;;;;;;;25.62;14.78;;;;;;;;;;1903399;75;21086;-43
2021/12/16 12:26:26;;;;;;;32.33;17.10;;;;;;;;;;1902599;75;21071;-43
2021/12/16 12:28:56;;;;;;;29.07;16.37;;;;;;;;;;1902898;75;21047;-43
2021/12/16 12:31:26;;;;;;;30.80;15.65;;;;;;;;;;1903465;75;21559;-43
2021/12/16 12:33:55;;;;;;;28.55;14.68;;;;;;;;;;1903870;75;21152;-44
2021/12/16 12:36:24;;;;;;;30.35;17.55;;;;;;;;;;1903401;75;21102;-43
2021/12/16 12:38:53;;;;;;;32.75;17.12;;;;;;;;;;1903330;75;21098;-43
2021/12/16 12:41:22;;;;;;;42.03;20.20;;;;;;;;;;1904042;75;21059;-44
2021/12/16 12:43:52;;;;;;;36.00;19.05;;;;;;;;;;1904300;75;21490;-43
2021/12/16 12:46:20;;;;;;;34.15;18.20;;;;;;;;;;1904258;75;21106;-43
2021/12/16 12:48:49;;;;;;;44.20;20.10;;;;;;;;;;1909711;74;21093;-44
2021/12/16 12:51:18;;;;;;;37.80;18.70;;;;;;;;;;1924164;74;21092;-43
2021/12/16 12:53:51;;;;;;;43.00;20.17;;;;;;;;;;1924671;74;21092;-43
2021/12/16 12:56:26;;;;;;;40.30;18.87;;;;;;;;;;1924628;74;21081;-43
2021/12/16 12:59:03;;;;;;;38.55;17.80;;;;;;;;;;1924572;74;21084;-44
2021/12/16 13:01:40;;;;;;;44.67;21.48;;;;;;;;;;1924592;74;21023;-43
2021/12/16 13:04:16;;;;;;;41.73;20.55;;;;;;;;;;1924770;74;21015;-43
2021/12/16 13:06:49;;;;;;;36.03;19.15;;;;;;;;;;1924737;74;21084;-44
2021/12/16 13:09:28;;;;;;;43.45;20.25;;;;;;;;;;1924763;74;21089;-43
2021/12/16 13:11:58;;;;;;;47.35;21.02;;;;;;;;;;1924740;74;21089;-43
2021/12/16 13:14:45;;;;;;;27.98;14.83;;;;;;;;;;1924719;74;21015;-43
2021/12/16 13:28:55;;;;;;;40.85;18.95;;;;;;;;;;1924691;74;21039;-43
2021/12/16 13:31:35;;;;;;;42.23;19.75;;;;;;;;;;1923258;74;21046;-44
2021/12/16 13:34:03;;;;;;;38.53;20.27;;;;;;;;;;1924625;74;21011;-44
2021/12/16 13:36:44;;;;;;;42.93;21.52;;;;;;;;;;1924718;74;20991;-44
2021/12/16 13:39:14;;;;;;;44.23;23.07;;;;;;;;;;1924746;74;21032;-43
2021/12/16 13:41:46;;;;;;;47.85;20.15;;;;;;;;;;1923763;74;21089;-43
2021/12/16 13:44:16;;;;;;;39.45;20.02;;;;;;;;;;1919540;74;21022;-43
2021/12/16 13:47:04;;;;;;;42.75;21.37;;;;;;;;;;1924647;74;21034;-43
2021/12/16 14:01:28;;;;;;;46.08;23.15;;;;;;;;;;1905154;75;21097;-43
2021/12/16 14:03:50;;;;;;;47.33;23.85;;;;;;;;;;1903513;74;21091;-43
2021/12/16 14:06:16;;;;;;;55.95;23.55;;;;;;;;;;1903578;74;21531;-43
2021/12/16 14:08:44;;;;;;;53.10;26.80;;;;;;;;;;1904982;74;21485;-43
2021/12/16 14:12:08;;;;;;;50.58;23.83;;;;;;;;;;1905275;75;21040;-42
2021/12/16 14:16:39;;;;;;;61.73;29.42;;;;;;;;;;1858497;74;21035;-43
2021/12/16 14:31:09;;;;;;;61.88;31.42;;;;;;;;;;1905331;75;21122;-44
2021/12/16 14:33:54;;;;;;;58.28;28.65;;;;;;;;;;1905220;75;21047;-43
2021/12/16 14:35:43;;;;;;;55.30;28.05;;;;;;;;;;1903359;75;21109;-43
2021/12/16 14:38:25;;;;;;;59.42;29.18;;;;;;;;;;1903699;74;21121;-43
2021/12/16 14:41:03;;;;;;;56.33;27.52;;;;;;;;;;1902537;74;21552;-43
2021/12/16 14:43:35;;;;;;;69.50;34.43;;;;;;;;;;1903321;74;21047;-43
2021/12/16 14:45:57;;;;;;;66.67;31.27;;;;;;;;;;1903844;74;21517;-44
2021/12/16 14:48:24;;;;;;;73.25;34.23;;;;;;;;;;1904686;74;21477;-44
2021/12/16 14:51:01;;;;;;;67.72;29.77;;;;;;;;;;1919880;74;21110;-43
2021/12/16 14:53:34;;;;;;;58.87;29.10;;;;;;;;;;1924690;74;21109;-44
2021/12/16 14:56:04;;;;;;;55.85;29.85;;;;;;;;;;1924903;74;21014;-43
2021/12/16 14:58:33;;;;;;;49.00;25.45;;;;;;;;;;1923764;74;21109;-43
2021/12/16 15:01:09;;;;;;;55.48;24.35;;;;;;;;;;1924736;74;21022;-43
2021/12/16 15:03:40;;;;;;;41.25;22.85;;;;;;;;;;1924704;74;21089;-43
2021/12/16 15:06:15;;;;;;;43.70;23.30;;;;;;;;;;1924807;74;21014;-43
2021/12/16 15:09:32;;;;;;;36.83;20.55;;;;;;;;;;1924924;74;21567;-43
2021/12/16 15:11:17;;;;;;;37.00;20.95;;;;;;;;;;1894640;74;21039;-43
2021/12/16 15:13:55;;;;;;;37.90;19.07;;;;;;;;;;1924523;74;21555;-44
2021/12/16 15:38:57;;;;;;;41.90;21.50;;;;;;;;;;1924707;74;20995;-43
2021/12/16 15:43:59;;;;;;;51.90;24.25;;;;;;;;;;1924750;74;21039;-43
2021/12/16 15:46:29;;;;;;;50.28;23.75;;;;;;;;;;1924316;74;21105;-43
2021/12/16 15:48:58;;;;;;;56.55;25.10;;;;;;;;;;1924648;74;21015;-43
2021/12/16 15:51:28;;;;;;;53.75;28.15;;;;;;;;;;1894093;75;21035;-44
2021/12/16 15:53:59;;;;;;;54.65;26.25;;;;;;;;;;1914791;75;20999;-43
2021/12/16 15:56:32;;;;;;;53.98;25.57;;;;;;;;;;1914736;75;20996;-43
2021/12/16 15:59:02;;;;;;;56.83;26.10;;;;;;;;;;1914827;75;21535;-44
2021/12/16 16:01:35;;;;;;;55.60;24.70;;;;;;;;;;1914569;75;21046;-43
2021/12/16 16:04:08;;;;;;;44.60;19.80;;;;;;;;;;1914757;75;21051;-43
2021/12/16 16:06:38;;;;;;;53.35;25.08;;;;;;;;;;1914705;73;21022;-43
2021/12/16 16:09:10;;;;;;;55.17;25.77;;;;;;;;;;1915006;75;21116;-44
2021/12/16 16:11:38;;;;;;;54.18;23.87;;;;;;;;;;1914530;74;21481;-45
2021/12/16 16:14:07;;;;;;;65.87;27.07;;;;;;;;;;1914868;75;21027;-44
2021/12/16 16:16:41;;;;;;;54.35;26.57;;;;;;;;;;1914794;75;21076;-44
2021/12/16 16:19:09;;;;;;;52.62;26.60;;;;;;;;;;1914743;74;21116;-44
2021/12/16 16:21:39;;;;;;;56.85;24.72;;;;;;;;;;1914761;75;21015;-43
2021/12/16 16:24:09;;;;;;;64.55;26.33;;;;;;;;;;1914831;75;21549;-44
2021/12/16 16:26:39;;;;;;;59.75;25.32;;;;;;;;;;1914823;75;21027;-43
2021/12/16 16:29:09;;;;;;;56.90;28.05;;;;;;;;;;1914773;75;21524;-44
2021/12/16 16:31:38;;;;;;;61.45;25.82;;;;;;;;;;1914822;75;21019;-44
2021/12/16 16:34:11;;;;;;;62.75;26.68;;;;;;;;;;1914774;75;20995;-44
2021/12/16 16:36:41;;;;;;;60.90;26.45;;;;;;;;;;1914840;75;20987;-44
2021/12/16 16:39:11;;;;;;;51.23;23.60;;;;;;;;;;1914870;75;21460;-44
2021/12/16 16:41:41;;;;;;;58.15;25.77;;;;;;;;;;1914757;75;21488;-44
2021/12/16 16:44:12;;;;;;;54.13;26.12;;;;;;;;;;1913974;75;21104;-44
2021/12/16 16:46:45;;;;;;;60.80;29.52;;;;;;;;;;1914722;75;21128;-44
2021/12/16 16:49:15;;;;;;;60.80;27.52;;;;;;;;;;1914835;74;21019;-43
2021/12/16 16:51:45;;;;;;;64.07;28.10;;;;;;;;;;1907148;74;21047;-44
2021/12/16 16:54:19;;;;;;;61.37;25.10;;;;;;;;;;1905196;75;21066;-44
2021/12/16 16:56:49;;;;;;;50.45;25.32;;;;;;;;;;1899807;75;21043;-44
2021/12/16 16:59:19;;;;;;;41.53;21.02;;;;;;;;;;1905204;75;21109;-43
2021/12/16 17:01:48;;;;;;;47.67;21.07;;;;;;;;;;1905227;74;20992;-44
2021/12/16 17:04:17;;;;;;;48.50;22.73;;;;;;;;;;1905428;75;21156;-44
2021/12/16 17:06:47;;;;;;;57.85;25.35;;;;;;;;;;1905306;75;20995;-44
2021/12/16 17:09:16;;;;;;;59.40;28.65;;;;;;;;;;1905327;75;21089;-43
2021/12/16 17:11:46;;;;;;;60.23;29.60;;;;;;;;;;1905226;75;21032;-44
2021/12/16 17:14:18;;;;;;;49.05;25.65;;;;;;;;;;1905407;75;21015;-45
2021/12/16 17:19:35;;;;;;;52.27;26.97;;;;;;;;;;1905267;75;21043;-44
2021/12/16 17:22:05;;;;;;;48.73;23.38;;;;;;;;;;1904406;74;21559;-44
2021/12/16 17:24:33;;;;;;;50.58;23.85;;;;;;;;;;1904874;74;21023;-44
2021/12/16 17:27:06;;;;;;;60.55;24.92;;;;;;;;;;1905477;75;21028;-44
2021/12/16 17:29:36;;;;;;;40.85;21.90;;;;;;;;;;1905375;74;21015;-44
2021/12/16 17:32:09;;;;;;;41.10;21.45;;;;;;;;;;1905399;75;20996;-44
2021/12/16 17:34:40;;;;;;;43.45;23.45;;;;;;;;;;1905320;75;21027;-44
2021/12/16 17:37:13;;;;;;;44.27;20.70;;;;;;;;;;1903435;74;21015;-45
2021/12/16 17:39:43;;;;;;;48.02;23.05;;;;;;;;;;1905323;75;21124;-43
2021/12/16 17:42:14;;;;;;;54.23;26.73;;;;;;;;;;1904714;74;21051;-44
2021/12/16 17:44:44;;;;;;;50.12;23.73;;;;;;;;;;1905440;75;21074;-44
2021/12/16 17:47:14;;;;;;;50.45;22.15;;;;;;;;;;1905394;75;21051;-45